KPHL

Philadelphia International Airport

Philadelphia, Pennsylvania, USA
METAR KPHL 230454Z 12004KT 10SM OVC085 09/05 A3017 RMK AO2 SLP214 T00890050 401280033 $
Observed Flight Rules
Oct-23 @ 04:54 UTC (51 minutes ago) Visual Flight Rules
Wind Visibility Clouds
120° at 4 knots 10 miles
  • Overcast at 8,500' AGL
Temperatures Readings
Current 9°C / 48°F
Dewpoint 5°C / 41°F
Humidity 76%
Altimeter 30.17" Hg
Pressure 1021.4 hPa
Elevation 18
METAR KPHL 230454Z 12004KT 10SM OVC085 09/05 A3017 RMK AO2 SLP214 T00890050 401280033 $
Observed Flight Rules
Oct-23 @ 04:54 UTC
(51 minutes ago)
VFR
Wind Visibility
120° at 4 knots 10 miles
Clouds
  • Overcast at 8,500' AGL
Temperature Dewpoint
9°C / 48°F 5°C / 41°F
Humidity Altimeter Pressure
76% 30.17" Hg 1021.4 hPa